Time;durP1;ratioP1;P1;durP2;ratioP2;P2;SDS_P1;SDS_P2;PMS_P1;PMS_P2;Temp;Humidity;BMP_temperature;BMP_pressure;BME280_temperature;BME280_humidity;BME280_pressure;Samples;Min_cycle;Max_cycle;Signal;HPM_P1;HPM_P2
2022/10/21 00:00:00;;;;;;;23.63;13.43;;;14.50;99.90;;;;;;5033619;28;20061;-72
2022/10/21 00:02:26;;;;;;;24.20;14.38;;;14.50;99.90;;;;;;5033785;28;20038;-72
2022/10/21 00:04:52;;;;;;;19.80;13.50;;;14.50;99.90;;;;;;5034312;28;20108;-72
2022/10/21 00:07:18;;;;;;;19.70;13.13;;;14.40;99.90;;;;;;5034352;28;20033;-71
2022/10/21 00:09:44;;;;;;;22.00;13.73;;;14.40;99.90;;;;;;5033518;28;20041;-72
2022/10/21 00:12:10;;;;;;;22.92;12.95;;;14.40;99.90;;;;;;5032904;28;20621;-72
2022/10/21 00:14:35;;;;;;;23.90;12.90;;;14.40;99.90;;;;;;5032980;28;20108;-72
2022/10/21 00:17:01;;;;;;;21.98;12.80;;;14.40;99.90;;;;;;5032569;28;20025;-72
2022/10/21 00:19:27;;;;;;;26.15;13.63;;;14.50;99.90;;;;;;5106937;22;20463;-69
2022/10/21 00:21:53;;;;;;;24.23;13.27;;;14.40;99.90;;;;;;5072572;28;20307;-70
2022/10/21 00:24:19;;;;;;;23.50;12.15;;;14.50;99.90;;;;;;5072832;28;20028;-70
2022/10/21 00:26:45;;;;;;;24.13;13.02;;;14.50;99.90;;;;;;5072058;28;20431;-70
2022/10/21 00:29:11;;;;;;;20.67;12.05;;;14.50;99.90;;;;;;5072459;28;20457;-70
2022/10/21 00:31:37;;;;;;;20.80;12.10;;;14.50;99.90;;;;;;5072165;28;20035;-70
2022/10/21 00:34:02;;;;;;;20.40;11.80;;;14.50;99.90;;;;;;5072435;28;20036;-70
2022/10/21 00:36:30;;;;;;;20.77;12.32;;;14.50;99.90;;;;;;5072225;28;20063;-70
2022/10/21 00:38:56;;;;;;;17.55;10.98;;;14.50;99.90;;;;;;5072103;28;20029;-70
2022/10/21 00:41:22;;;;;;;20.85;11.57;;;14.50;99.90;;;;;;5072486;28;20492;-70
2022/10/21 00:43:59;;;;;;;19.05;11.50;;;14.50;99.90;;;;;;5072293;28;20032;-70
2022/10/21 00:46:58;;;;;;;17.83;11.55;;;14.50;99.90;;;;;;5071852;28;20032;-70
2022/10/21 00:49:36;;;;;;;;;;;14.50;99.90;;;;;;5072489;28;20033;-70
2022/10/21 00:52:06;;;;;;;21.98;12.25;;;14.50;99.90;;;;;;5071876;28;19912;-70
2022/10/21 00:54:33;;;;;;;17.60;11.27;;;14.50;99.90;;;;;;5071925;28;20021;-70
2022/10/21 00:56:59;;;;;;;13.65;9.90;;;14.50;99.90;;;;;;5071767;28;20111;-70
2022/10/21 00:59:32;;;;;;;16.15;9.65;;;14.50;99.90;;;;;;5071632;28;20112;-70
2022/10/21 01:01:58;;;;;;;17.90;11.18;;;14.50;99.90;;;;;;5072007;28;20020;-70
2022/10/21 01:04:24;;;;;;;13.95;9.73;;;14.50;99.90;;;;;;5072092;28;20027;-70
2022/10/21 01:06:51;;;;;;;15.40;10.20;;;14.50;99.90;;;;;;5071980;28;20484;-70
2022/10/21 01:09:18;;;;;;;17.67;10.27;;;14.40;99.90;;;;;;5071602;28;20059;-70
2022/10/21 01:11:46;;;;;;;22.95;11.48;;;14.50;99.90;;;;;;5071675;28;20032;-70
2022/10/21 01:14:18;;;;;;;17.33;10.05;;;14.40;99.90;;;;;;5071851;28;20028;-70
2022/10/21 01:17:01;;;;;;;14.13;10.10;;;14.40;99.90;;;;;;5071511;28;20181;-70
2022/10/21 01:19:46;;;;;;;17.17;10.20;;;14.40;99.90;;;;;;5069966;28;20035;-70
2022/10/21 01:22:14;;;;;;;17.33;10.23;;;14.40;99.90;;;;;;5071428;28;20111;-70
2022/10/21 01:24:52;;;;;;;15.50;9.25;;;14.30;99.90;;;;;;5071421;28;20034;-70
2022/10/21 01:27:20;;;;;;;14.82;9.48;;;14.30;99.90;;;;;;5069940;28;20473;-70
2022/10/21 01:30:06;;;;;;;15.13;10.43;;;14.30;99.90;;;;;;5071151;28;20032;-70
2022/10/21 01:32:45;;;;;;;14.57;9.60;;;14.30;99.90;;;;;;5071340;28;20032;-70
2022/10/21 01:35:10;;;;;;;;;;;14.30;99.90;;;;;;5071730;28;20074;-70
2022/10/21 01:37:41;;;;;;;21.25;10.52;;;14.30;99.90;;;;;;5069808;28;19908;-70
2022/10/21 01:40:18;;;;;;;14.60;9.52;;;14.30;99.90;;;;;;5069761;28;20031;-70
2022/10/21 01:42:53;;;;;;;18.25;10.18;;;14.30;99.90;;;;;;5070804;28;20040;-70
2022/10/21 01:45:37;;;;;;;15.88;10.30;;;14.30;99.90;;;;;;5071092;28;20032;-70
2022/10/21 01:48:10;;;;;;;16.15;9.50;;;14.20;99.90;;;;;;5071131;28;20034;-70
2022/10/21 01:50:44;;;;;;;19.83;10.52;;;14.30;99.90;;;;;;5070806;28;20049;-70
2022/10/21 01:53:13;;;;;;;16.90;10.27;;;14.20;99.90;;;;;;5071119;28;20059;-70
2022/10/21 01:55:41;;;;;;;18.30;10.25;;;14.20;99.90;;;;;;5070761;28;20021;-70
2022/10/21 01:58:13;;;;;;;16.52;9.68;;;14.20;99.90;;;;;;5071161;28;20025;-70
2022/10/21 02:00:40;;;;;;;16.95;10.20;;;14.20;99.90;;;;;;5069528;28;20020;-70
2022/10/21 02:03:10;;;;;;;14.25;8.90;;;14.20;99.90;;;;;;5070810;28;20028;-70
2022/10/21 02:05:36;;;;;;;20.30;10.30;;;14.20;99.90;;;;;;5069764;28;20420;-70
2022/10/21 02:08:03;;;;;;;16.17;10.07;;;14.10;99.90;;;;;;5070899;28;20032;-70
2022/10/21 02:10:34;;;;;;;16.13;9.43;;;14.10;99.90;;;;;;5070552;28;20115;-70
2022/10/21 02:13:05;;;;;;;15.43;9.75;;;14.10;99.90;;;;;;5070542;28;20044;-70
2022/10/21 02:15:33;;;;;;;18.17;9.60;;;14.10;99.90;;;;;;5070238;28;20035;-70
2022/10/21 02:18:05;;;;;;;15.75;9.20;;;14.10;99.90;;;;;;5070661;28;20104;-70
2022/10/21 02:20:38;;;;;;;15.20;9.30;;;14.10;99.90;;;;;;5069282;28;20029;-70
2022/10/21 02:23:07;;;;;;;16.30;9.40;;;14.10;99.90;;;;;;5070742;28;20040;-70
2022/10/21 02:25:37;;;;;;;15.25;8.55;;;14.10;99.90;;;;;;5069523;28;20086;-70
2022/10/21 02:28:04;;;;;;;14.98;8.82;;;14.10;99.90;;;;;;5070805;28;20036;-70
2022/10/21 02:30:38;;;;;;;17.65;9.23;;;14.00;99.90;;;;;;5070542;28;20036;-70
2022/10/21 02:33:19;;;;;;;15.35;9.50;;;14.00;99.90;;;;;;5070685;28;20392;-70
2022/10/21 02:36:01;;;;;;;13.77;8.45;;;14.00;99.90;;;;;;5069120;28;20036;-70
2022/10/21 02:38:44;;;;;;;13.90;8.60;;;14.00;99.90;;;;;;5070461;28;20099;-70
2022/10/21 02:41:13;;;;;;;12.80;8.05;;;13.90;99.90;;;;;;5070535;28;20457;-71
2022/10/21 02:43:45;;;;;;;11.82;8.10;;;13.90;99.90;;;;;;5070368;28;20032;-70
2022/10/21 02:46:13;;;;;;;13.88;8.43;;;13.90;99.90;;;;;;5070407;28;20025;-70
2022/10/21 02:48:42;;;;;;;16.73;7.72;;;13.90;99.90;;;;;;5070302;28;20521;-70
2022/10/21 02:51:09;;;;;;;11.90;7.85;;;13.80;99.90;;;;;;5070436;28;20024;-70
2022/10/21 02:53:35;;;;;;;14.80;8.05;;;13.90;99.90;;;;;;5070237;28;20123;-70
2022/10/21 02:56:02;;;;;;;12.93;7.90;;;13.80;99.90;;;;;;5070254;28;20501;-70
2022/10/21 02:58:28;;;;;;;16.73;8.50;;;13.80;99.90;;;;;;5070451;28;20574;-70
2022/10/21 03:00:54;;;;;;;14.07;7.70;;;13.80;99.90;;;;;;5070472;28;20061;-70
2022/10/21 03:03:20;;;;;;;14.00;6.78;;;13.80;99.90;;;;;;5070502;28;20056;-70
2022/10/21 03:05:46;;;;;;;11.93;7.03;;;13.80;99.90;;;;;;5070373;28;20029;-70
2022/10/21 03:08:12;;;;;;;11.77;6.25;;;13.80;99.90;;;;;;5070769;28;20040;-70
2022/10/21 03:10:38;;;;;;;8.80;6.00;;;13.80;99.90;;;;;;5070076;28;20179;-70
2022/10/21 03:13:04;;;;;;;10.73;6.25;;;13.80;99.90;;;;;;5070148;28;20033;-70
2022/10/21 03:15:30;;;;;;;9.88;5.82;;;13.80;99.90;;;;;;5069068;28;20024;-70
2022/10/21 03:17:56;;;;;;;10.70;6.00;;;13.80;99.90;;;;;;5070065;28;20029;-70
2022/10/21 03:20:22;;;;;;;8.40;5.13;;;13.80;99.90;;;;;;5069134;28;20477;-72
2022/10/21 03:22:48;;;;;;;8.27;4.88;;;13.80;99.90;;;;;;5077545;28;20032;-71
2022/10/21 03:25:14;;;;;;;8.32;4.70;;;13.80;99.90;;;;;;5064746;28;20033;-71
2022/10/21 03:27:40;;;;;;;8.50;4.82;;;13.80;99.90;;;;;;5095306;28;20028;-72
2022/10/21 03:30:08;;;;;;;6.57;4.95;;;13.90;99.90;;;;;;5094468;28;20034;-74
2022/10/21 03:32:34;;;;;;;8.20;4.47;;;13.80;99.90;;;;;;5093507;28;20032;-76
2022/10/21 03:35:00;;;;;;;8.45;4.63;;;13.90;99.90;;;;;;5092031;28;20111;-71
2022/10/21 03:37:26;;;;;;;7.40;5.15;;;13.90;99.90;;;;;;5092966;28;20051;-70
2022/10/21 03:39:52;;;;;;;11.05;4.47;;;13.80;99.90;;;;;;5093073;28;20040;-71
2022/10/21 03:42:18;;;;;;;7.80;4.88;;;13.80;99.90;;;;;;5093312;28;20119;-70
2022/10/21 03:44:44;;;;;;;8.05;4.60;;;13.80;99.90;;;;;;5092782;28;20027;-69
2022/10/21 03:47:09;;;;;;;9.23;4.57;;;13.90;99.90;;;;;;5092625;28;20056;-70
2022/10/21 03:49:35;;;;;;;8.05;4.72;;;13.80;99.90;;;;;;5076135;28;20134;-69
2022/10/21 03:52:01;;;;;;;7.32;4.60;;;13.80;99.90;;;;;;5072140;28;20421;-69
2022/10/21 03:54:27;;;;;;;9.35;4.90;;;13.90;99.90;;;;;;5071799;28;20056;-69
2022/10/21 03:56:53;;;;;;;8.85;4.72;;;13.80;99.90;;;;;;5072251;28;20535;-69
2022/10/21 03:59:19;;;;;;;8.48;4.88;;;13.80;99.90;;;;;;5070647;28;20106;-69
2022/10/21 04:01:45;;;;;;;8.30;4.95;;;13.80;99.90;;;;;;5072094;28;20405;-69
2022/10/21 04:04:10;;;;;;;6.78;4.43;;;13.90;99.90;;;;;;5072184;28;20492;-69
2022/10/21 04:06:36;;;;;;;6.22;3.97;;;13.80;99.90;;;;;;5072234;28;20028;-69
2022/10/21 04:09:03;;;;;;;9.43;4.30;;;13.90;99.90;;;;;;5071480;28;20043;-69
2022/10/21 04:11:28;;;;;;;9.20;4.70;;;13.90;99.90;;;;;;5072197;28;20060;-69
2022/10/21 04:13:54;;;;;;;9.23;4.18;;;13.90;99.90;;;;;;5072046;28;20071;-69
2022/10/21 04:16:21;;;;;;;8.02;4.03;;;13.90;99.90;;;;;;5071993;28;20028;-69
2022/10/21 04:18:47;;;;;;;11.80;5.10;;;13.90;99.90;;;;;;5071696;28;20040;-68
2022/10/21 04:21:14;;;;;;;8.65;4.55;;;14.00;99.90;;;;;;5071979;28;20128;-69
2022/10/21 04:23:40;;;;;;;9.02;4.50;;;14.00;99.90;;;;;;5071668;28;20036;-69
2022/10/21 04:26:06;;;;;;;7.40;4.43;;;14.00;99.90;;;;;;5071219;28;20480;-68
2022/10/21 04:28:33;;;;;;;6.95;4.35;;;14.00;99.90;;;;;;5071500;28;20489;-69
2022/10/21 04:30:59;;;;;;;7.25;3.85;;;14.00;99.90;;;;;;5071221;28;20032;-69
2022/10/21 04:33:26;;;;;;;7.35;4.10;;;14.00;99.90;;;;;;5071283;28;20424;-69
2022/10/21 04:35:55;;;;;;;7.53;3.75;;;14.00;99.90;;;;;;5071084;28;20025;-69
2022/10/21 04:38:22;;;;;;;7.65;4.00;;;14.00;99.90;;;;;;5070629;28;20028;-69
2022/10/21 04:40:57;;;;;;;7.22;3.90;;;14.00;99.90;;;;;;5070762;28;20051;-71
2022/10/21 04:43:24;;;;;;;8.27;4.07;;;14.10;99.90;;;;;;5071231;28;20029;-67
2022/10/21 04:45:50;;;;;;;6.68;4.28;;;14.10;99.90;;;;;;5069692;28;20115;-69
2022/10/21 04:48:16;;;;;;;7.45;3.75;;;14.10;99.90;;;;;;5071082;28;20036;-68
2022/10/21 04:50:42;;;;;;;8.10;3.83;;;14.10;99.90;;;;;;5069699;28;20035;-69
2022/10/21 04:53:08;;;;;;;6.20;3.90;;;14.10;99.90;;;;;;5070618;28;20115;-69
2022/10/21 04:55:37;;;;;;;7.97;4.10;;;14.10;99.90;;;;;;5069434;28;20040;-68
2022/10/21 04:58:03;;;;;;;14.02;4.53;;;14.10;99.90;;;;;;5070550;28;20023;-68
2022/10/21 05:00:28;;;;;;;5.95;4.05;;;14.10;99.90;;;;;;5070638;28;20124;-68
2022/10/21 05:02:54;;;;;;;5.88;3.70;;;14.10;99.90;;;;;;5070548;28;20032;-69
2022/10/21 05:05:20;;;;;;;6.68;4.00;;;14.10;99.90;;;;;;5070298;28;20058;-69
2022/10/21 05:07:46;;;;;;;6.97;3.60;;;14.10;99.90;;;;;;5070164;28;20027;-68
2022/10/21 05:10:12;;;;;;;6.78;3.88;;;14.10;99.90;;;;;;5069679;28;20074;-68
2022/10/21 05:12:38;;;;;;;6.35;3.47;;;14.20;99.90;;;;;;5069937;28;20582;-69
2022/10/21 05:15:04;;;;;;;9.48;3.80;;;14.20;99.90;;;;;;5069284;28;20112;-68
2022/10/21 05:17:30;;;;;;;10.95;4.20;;;14.20;99.90;;;;;;5070531;28;20461;-70
2022/10/21 05:19:55;;;;;;;6.88;3.80;;;14.20;99.90;;;;;;5069790;28;20033;-70
2022/10/21 05:22:21;;;;;;;7.75;3.78;;;14.20;99.90;;;;;;5070260;28;20033;-70
2022/10/21 05:24:47;;;;;;;6.22;3.60;;;14.20;99.90;;;;;;5068331;28;20032;-66
2022/10/21 05:27:13;;;;;;;7.03;3.40;;;14.20;99.90;;;;;;5070479;28;20028;-71
2022/10/21 05:29:39;;;;;;;5.65;3.58;;;14.20;99.90;;;;;;5070093;28;20439;-71
2022/10/21 05:32:05;;;;;;;10.38;4.38;;;14.20;99.90;;;;;;5068935;28;20131;-71
2022/10/21 05:34:31;;;;;;;8.00;4.10;;;14.20;99.90;;;;;;5068560;28;20062;-70
2022/10/21 05:36:57;;;;;;;8.57;4.13;;;14.20;99.90;;;;;;5067185;28;20370;-70
2022/10/21 05:39:23;;;;;;;7.22;4.10;;;14.20;99.90;;;;;;5066654;28;20116;-68
2022/10/21 05:41:49;;;;;;;7.50;3.58;;;14.10;99.90;;;;;;5068686;28;20721;-70
2022/10/21 05:44:15;;;;;;;5.60;3.47;;;14.20;99.90;;;;;;5067135;28;20024;-68
2022/10/21 05:46:41;;;;;;;6.25;3.50;;;14.20;99.90;;;;;;5068430;28;20465;-68
2022/10/21 05:49:07;;;;;;;7.30;3.42;;;14.20;99.90;;;;;;5069421;28;20039;-68
2022/10/21 05:51:33;;;;;;;8.40;4.00;;;14.20;99.90;;;;;;5069236;28;20039;-70
2022/10/21 05:53:58;;;;;;;8.18;4.47;;;14.20;99.90;;;;;;5069588;28;20147;-71
2022/10/21 05:56:24;;;;;;;9.48;4.75;;;14.10;99.90;;;;;;5070059;28;20062;-71
2022/10/21 05:58:50;;;;;;;9.07;4.20;;;14.10;99.90;;;;;;5068445;28;20476;-71
2022/10/21 06:01:16;;;;;;;10.80;5.68;;;14.10;99.90;;;;;;5068987;28;20443;-71
2022/10/21 06:03:42;;;;;;;9.77;4.82;;;14.10;99.90;;;;;;5069818;28;20128;-71
2022/10/21 06:06:08;;;;;;;9.05;4.90;;;14.10;99.90;;;;;;5069888;28;20143;-71
2022/10/21 06:08:37;;;;;;;11.65;6.45;;;14.00;99.90;;;;;;5069780;28;20404;-70
2022/10/21 06:11:09;;;;;;;13.13;5.60;;;14.00;99.90;;;;;;5069463;28;20481;-71
2022/10/21 06:13:35;;;;;;;13.45;5.15;;;14.00;99.90;;;;;;5069920;28;20397;-68
2022/10/21 06:16:02;;;;;;;10.35;4.70;;;14.00;99.90;;;;;;5069596;28;20031;-68
2022/10/21 06:18:29;;;;;;;7.03;4.13;;;14.00;99.90;;;;;;5069717;28;20028;-72
2022/10/21 06:20:55;;;;;;;9.55;4.97;;;13.90;99.90;;;;;;5133379;23;20050;-69
2022/10/21 06:23:21;;;;;;;10.10;4.95;;;14.00;99.90;;;;;;5066883;28;20028;-70
2022/10/21 06:25:54;;;;;;;10.70;5.45;;;14.00;99.90;;;;;;5051779;28;20111;-71
2022/10/21 06:28:20;;;;;;;9.10;4.55;;;14.10;99.90;;;;;;5069643;28;20035;-70
2022/10/21 06:30:46;;;;;;;9.00;5.15;;;14.20;99.90;;;;;;5069622;28;20548;-73
2022/10/21 06:33:12;;;;;;;11.48;5.30;;;14.30;99.90;;;;;;5067891;28;20086;-71
2022/10/21 06:35:38;;;;;;;10.88;5.90;;;14.40;99.90;;;;;;5069254;28;20037;-71
2022/10/21 06:38:04;;;;;;;7.70;4.45;;;14.50;99.90;;;;;;5069403;28;20120;-71
2022/10/21 06:40:30;;;;;;;6.72;3.75;;;14.50;99.90;;;;;;5068558;28;20432;-71
2022/10/21 06:42:55;;;;;;;10.63;4.15;;;14.40;99.90;;;;;;5069342;28;20029;-71
2022/10/21 06:45:21;;;;;;;9.35;3.97;;;14.40;99.90;;;;;;5069328;28;20401;-71
2022/10/21 06:47:47;;;;;;;7.47;3.53;;;14.40;99.90;;;;;;5068984;28;20032;-71
2022/10/21 06:50:13;;;;;;;11.90;3.97;;;14.40;99.90;;;;;;5068878;28;20032;-71
2022/10/21 06:52:40;;;;;;;9.02;4.00;;;14.40;99.90;;;;;;5069285;28;20033;-71
2022/10/21 06:55:06;;;;;;;8.07;4.50;;;14.40;99.90;;;;;;5068708;28;20028;-72
2022/10/21 06:57:32;;;;;;;11.25;4.00;;;14.40;99.90;;;;;;5068268;28;20025;-72
2022/10/21 07:00:03;;;;;;;6.38;3.22;;;14.40;99.90;;;;;;5068459;28;20077;-73
2022/10/21 07:02:29;;;;;;;7.60;3.78;;;14.40;99.90;;;;;;5071327;28;20036;-72
2022/10/21 07:04:56;;;;;;;7.30;3.35;;;14.40;99.90;;;;;;5072023;28;20567;-72
2022/10/21 07:07:22;;;;;;;6.22;3.13;;;14.40;99.90;;;;;;5072330;28;20032;-74
2022/10/21 07:09:48;;;;;;;6.85;3.85;;;14.40;99.90;;;;;;5071485;28;20040;-72
2022/10/21 07:12:14;;;;;;;8.90;4.97;;;14.40;99.90;;;;;;5053635;28;20028;-72
2022/10/21 07:14:40;;;;;;;8.85;4.93;;;14.50;99.90;;;;;;5071580;28;20028;-73
2022/10/21 07:17:05;;;;;;;8.88;4.75;;;14.40;99.90;;;;;;5071500;28;20020;-73
2022/10/21 07:19:32;;;;;;;10.45;4.70;;;14.50;99.90;;;;;;5071398;28;20352;-72
2022/10/21 07:21:58;;;;;;;8.95;4.85;;;14.50;99.90;;;;;;5071557;28;20435;-74
2022/10/21 07:24:23;;;;;;;6.68;4.05;;;14.50;99.90;;;;;;5071903;28;20145;-72
2022/10/21 07:26:50;;;;;;;7.75;4.38;;;14.50;99.90;;;;;;5053303;28;20036;-73
2022/10/21 07:29:16;;;;;;;7.85;3.58;;;14.50;99.90;;;;;;5083781;28;20153;-69
2022/10/21 07:31:42;;;;;;;6.07;3.95;;;14.50;99.90;;;;;;5092212;28;20027;-71
2022/10/21 07:34:11;;;;;;;6.25;4.05;;;14.50;99.90;;;;;;5092231;28;20046;-70
2022/10/21 07:36:40;;;;;;;8.32;3.80;;;14.50;99.90;;;;;;5092132;28;20112;-70
2022/10/21 07:39:08;;;;;;;;;;;14.50;99.90;;;;;;5092708;28;20126;-69
2022/10/21 07:41:38;;;;;;;5.83;3.70;;;14.50;99.90;;;;;;5073875;28;20375;-70
2022/10/21 07:44:05;;;;;;;5.53;3.00;;;14.60;99.90;;;;;;5092147;28;20027;-69
2022/10/21 07:46:31;;;;;;;5.38;2.80;;;14.60;99.90;;;;;;5092580;28;20024;-70
2022/10/21 07:48:57;;;;;;;10.80;4.00;;;14.60;99.90;;;;;;5092173;28;20024;-70
2022/10/21 07:51:25;;;;;;;5.28;3.65;;;14.60;99.90;;;;;;5092151;28;20101;-69
2022/10/21 07:53:54;;;;;;;5.53;3.25;;;14.60;99.90;;;;;;5091839;28;20062;-70
2022/10/21 07:56:23;;;;;;;;;;;14.70;99.90;;;;;;5091941;28;20037;-70
2022/10/21 07:58:50;;;;;;;7.07;3.40;;;14.70;99.90;;;;;;5074102;28;19966;-70
2022/10/21 08:01:17;;;;;;;6.30;3.00;;;14.70;99.90;;;;;;5092264;28;20243;-70
2022/10/21 08:03:43;;;;;;;6.25;3.45;;;14.70;99.90;;;;;;5092188;28;20020;-70
2022/10/21 08:06:10;;;;;;;6.70;3.50;;;14.80;99.90;;;;;;5092165;28;20020;-71
2022/10/21 08:08:37;;;;;;;7.32;3.78;;;14.80;99.90;;;;;;5091814;28;20063;-72
2022/10/21 08:11:05;;;;;;;7.35;3.10;;;14.80;99.90;;;;;;5091428;28;20150;-70
2022/10/21 08:13:31;;;;;;;5.60;3.20;;;14.90;99.90;;;;;;5085450;28;20054;-70
2022/10/21 08:15:57;;;;;;;7.25;3.38;;;14.90;99.90;;;;;;5053309;28;20037;-69
2022/10/21 08:18:27;;;;;;;7.20;3.83;;;14.90;99.90;;;;;;5060303;28;20024;-70
2022/10/21 08:20:53;;;;;;;8.05;4.00;;;14.90;99.90;;;;;;5073275;28;20024;-69
2022/10/21 08:23:21;;;;;;;6.53;3.83;;;14.90;99.90;;;;;;5076057;28;20119;-69
2022/10/21 08:25:52;;;;;;;8.47;3.43;;;15.00;99.90;;;;;;5082144;28;20123;-69
2022/10/21 08:28:20;;;;;;;5.55;3.65;;;15.00;99.90;;;;;;5091014;28;20032;-71
2022/10/21 08:30:46;;;;;;;6.95;3.63;;;15.00;99.90;;;;;;5077980;28;20028;-69
2022/10/21 08:33:13;;;;;;;6.53;3.72;;;15.10;99.90;;;;;;5072831;28;20139;-69
2022/10/21 08:35:39;;;;;;;6.72;3.45;;;15.00;99.90;;;;;;5071567;28;20127;-70
2022/10/21 08:38:06;;;;;;;7.50;3.10;;;15.10;99.90;;;;;;5089254;28;20027;-69
2022/10/21 08:40:39;;;;;;;6.32;3.30;;;15.10;99.90;;;;;;5071336;28;20141;-71
2022/10/21 08:43:16;;;;;;;6.30;3.47;;;15.10;99.90;;;;;;5078795;28;20404;-70
2022/10/21 08:45:47;;;;;;;5.88;3.40;;;15.10;99.90;;;;;;5085304;28;20032;-70
2022/10/21 08:48:17;;;;;;;7.30;3.80;;;15.10;99.90;;;;;;5088375;28;20399;-69
2022/10/21 08:50:49;;;;;;;7.47;3.92;;;15.10;99.90;;;;;;5069884;28;20036;-69
2022/10/21 08:53:34;;;;;;;7.50;3.88;;;15.10;99.90;;;;;;5085843;28;20497;-71
2022/10/21 08:56:04;;;;;;;6.75;3.38;;;15.10;99.90;;;;;;5078707;28;20472;-69
2022/10/21 08:58:30;;;;;;;8.52;3.92;;;15.10;99.90;;;;;;5078590;28;20119;-71
2022/10/21 09:01:13;;;;;;;9.73;3.80;;;15.10;99.90;;;;;;5084215;28;20107;-69
2022/10/21 09:03:53;;;;;;;7.38;4.35;;;15.10;99.90;;;;;;5066907;28;20062;-71
2022/10/21 09:06:21;;;;;;;7.30;4.07;;;15.10;99.90;;;;;;5082829;28;20039;-74
2022/10/21 09:09:08;;;;;;;7.72;4.00;;;15.10;99.90;;;;;;5082141;28;20041;-74
2022/10/21 09:11:55;;;;;;;10.00;4.03;;;15.20;99.90;;;;;;5054618;28;20032;-72
2022/10/21 09:14:36;;;;;;;9.27;5.03;;;15.20;99.90;;;;;;5077062;28;20035;-74
2022/10/21 09:17:30;;;;;;;13.45;4.65;;;15.30;99.90;;;;;;5092491;28;20077;-71
2022/10/21 09:20:14;;;;;;;9.85;4.40;;;15.30;99.90;;;;;;5080462;28;20544;-74
2022/10/21 09:23:05;;;;;;;7.90;4.25;;;15.30;99.90;;;;;;5080421;28;20047;-74
2022/10/21 09:26:01;;;;;;;6.85;4.57;;;15.30;99.90;;;;;;5061730;28;20120;-74
2022/10/21 09:28:29;;;;;;;10.57;4.70;;;15.40;99.90;;;;;;5069757;28;20028;-74
2022/10/21 09:30:57;;;;;;;8.18;4.57;;;15.40;99.90;;;;;;5078620;28;20534;-74
2022/10/21 09:33:28;;;;;;;8.15;4.80;;;15.40;99.90;;;;;;5083989;28;20032;-73
2022/10/21 09:36:12;;;;;;;8.60;4.82;;;15.40;99.90;;;;;;5092237;28;20032;-74
2022/10/21 09:38:55;;;;;;;9.75;4.63;;;15.50;99.90;;;;;;5063405;28;20032;-74
2022/10/21 09:41:31;;;;;;;8.55;4.80;;;15.50;99.90;;;;;;5074808;28;20036;-73
2022/10/21 09:43:57;;;;;;;13.25;5.00;;;15.50;99.90;;;;;;5086872;28;20028;-73
2022/10/21 09:46:23;;;;;;;8.07;4.50;;;15.60;99.90;;;;;;5080393;28;20062;-72
2022/10/21 09:48:51;;;;;;;8.20;4.82;;;15.60;99.90;;;;;;5078545;28;20124;-74
2022/10/21 09:51:25;;;;;;;8.25;5.03;;;15.60;99.90;;;;;;5071404;28;20462;-73
2022/10/21 09:54:19;;;;;;;10.25;4.75;;;15.60;99.90;;;;;;5045156;28;20029;-73
2022/10/21 09:57:14;;;;;;;10.20;5.10;;;15.60;99.90;;;;;;5038896;28;20036;-71
2022/10/21 09:59:54;;;;;;;8.25;4.57;;;15.60;99.90;;;;;;5075234;28;20039;-73
2022/10/21 10:02:42;;;;;;;8.82;5.55;;;15.60;99.90;;;;;;5056244;28;20579;-73
2022/10/21 10:05:48;;;;;;;8.93;4.82;;;15.50;99.90;;;;;;5074343;28;20024;-72
2022/10/21 10:08:25;;;;;;;8.60;4.50;;;15.50;99.90;;;;;;5069619;28;20476;-75
2022/10/21 10:10:59;;;;;;;9.30;4.47;;;15.50;99.90;;;;;;5069133;28;20360;-72
2022/10/21 10:13:27;;;;;;;7.63;4.53;;;15.50;99.90;;;;;;5069565;28;20458;-71
2022/10/21 10:15:53;;;;;;;7.57;4.60;;;15.50;99.90;;;;;;5051274;28;20104;-71
2022/10/21 10:18:21;;;;;;;8.45;4.53;;;15.50;99.90;;;;;;5069662;28;20513;-72
2022/10/21 10:21:04;;;;;;;7.97;4.20;;;15.50;99.90;;;;;;5069060;28;20338;-75
2022/10/21 10:23:42;;;;;;;10.05;4.57;;;15.50;99.90;;;;;;5069403;28;20037;-73
2022/10/21 10:26:08;;;;;;;8.88;4.45;;;15.50;99.90;;;;;;5068640;28;20170;-73
2022/10/21 10:28:34;;;;;;;8.32;3.92;;;15.50;99.90;;;;;;5069390;28;20037;-73
2022/10/21 10:30:59;;;;;;;9.15;4.18;;;15.50;99.90;;;;;;5069322;28;20036;-74
2022/10/21 10:33:30;;;;;;;11.10;4.85;;;15.50;99.90;;;;;;5069297;28;20041;-75
2022/10/21 10:35:59;;;;;;;10.30;4.50;;;15.50;99.90;;;;;;5069001;28;20036;-71
2022/10/21 10:38:40;;;;;;;7.70;4.63;;;15.60;99.90;;;;;;5065804;28;20043;-71
2022/10/21 10:41:13;;;;;;;7.15;4.00;;;15.50;99.90;;;;;;5045007;28;20466;-71
2022/10/21 10:43:57;;;;;;;11.32;4.90;;;15.50;99.90;;;;;;5072005;28;20039;-73
2022/10/21 10:46:29;;;;;;;7.88;5.10;;;15.50;99.90;;;;;;5072651;28;20036;-73
2022/10/21 10:49:02;;;;;;;9.57;5.32;;;15.50;99.90;;;;;;5054428;28;20073;-73
2022/10/21 10:51:33;;;;;;;9.13;4.30;;;15.50;99.90;;;;;;5072453;28;20028;-73
2022/10/21 10:54:05;;;;;;;9.48;4.60;;;15.50;99.90;;;;;;5072325;28;20063;-73
2022/10/21 10:56:44;;;;;;;8.85;4.72;;;15.50;99.90;;;;;;5071918;28;20040;-73
2022/10/21 10:59:13;;;;;;;10.57;4.72;;;15.40;99.90;;;;;;5072394;28;20021;-73
2022/10/21 11:02:02;;;;;;;9.27;4.90;;;15.40;99.90;;;;;;5072216;28;20040;-73
2022/10/21 11:04:33;;;;;;;7.35;4.80;;;15.40;99.90;;;;;;5072569;28;20032;-73
2022/10/21 11:07:12;;;;;;;11.20;5.97;;;15.40;99.90;;;;;;5054155;28;20047;-73
2022/10/21 11:09:38;;;;;;;9.48;5.53;;;15.40;99.90;;;;;;5071894;28;20112;-72
2022/10/21 11:12:15;;;;;;;8.60;4.88;;;15.40;99.90;;;;;;5071586;28;20107;-73
2022/10/21 11:14:43;;;;;;;6.57;4.60;;;15.40;99.90;;;;;;5054105;28;20028;-73
2022/10/21 11:17:11;;;;;;;8.70;4.50;;;15.40;99.90;;;;;;5072279;28;20025;-73
2022/10/21 11:20:16;;;;;;;6.82;4.40;;;15.50;99.90;;;;;;5072032;28;20086;-74
2022/10/21 11:23:04;;;;;;;7.75;4.10;;;15.60;99.90;;;;;;5014406;28;20127;-74
2022/10/21 11:25:44;;;;;;;10.88;3.80;;;16.00;99.90;;;;;;5071479;28;20478;-74
2022/10/21 11:28:35;;;;;;;7.22;3.72;;;16.20;99.90;;;;;;5072206;28;20032;-74
2022/10/21 11:31:12;;;;;;;6.70;3.47;;;16.40;99.90;;;;;;5069997;28;20036;-74
2022/10/21 11:34:07;;;;;;;9.27;3.45;;;16.60;99.90;;;;;;5071254;28;20032;-74
2022/10/21 11:36:58;;;;;;;7.97;3.50;;;16.70;99.90;;;;;;5072020;28;20054;-75
2022/10/21 11:39:53;;;;;;;5.75;3.45;;;16.70;99.90;;;;;;5072768;28;20043;-75
2022/10/21 11:42:30;;;;;;;7.28;3.20;;;16.60;99.90;;;;;;5075394;22;20037;-75
2022/10/21 11:44:58;;;;;;;6.15;3.38;;;16.50;99.90;;;;;;5032216;28;20105;-75
2022/10/21 11:47:45;;;;;;;6.30;3.38;;;16.50;99.90;;;;;;5032019;28;20033;-75
2022/10/21 11:50:35;;;;;;;5.70;2.88;;;16.40;99.90;;;;;;5031295;28;20032;-75
2022/10/21 11:53:30;;;;;;;6.65;3.15;;;16.40;99.90;;;;;;5031475;28;20397;-75
2022/10/21 11:56:14;;;;;;;6.20;3.22;;;16.30;99.90;;;;;;5027425;28;20100;-71
2022/10/21 11:58:48;;;;;;;6.25;3.10;;;16.30;99.90;;;;;;5035101;28;20025;-74
2022/10/21 12:01:22;;;;;;;5.38;2.83;;;16.30;99.90;;;;;;5048476;28;20098;-72
2022/10/21 12:03:57;;;;;;;6.15;2.90;;;16.30;99.90;;;;;;5049778;28;20041;-72
2022/10/21 12:06:42;;;;;;;6.97;3.40;;;16.30;99.90;;;;;;5032067;28;20466;-72
2022/10/21 12:09:27;;;;;;;8.27;3.83;;;16.30;99.90;;;;;;5048798;28;20131;-72
2022/10/21 12:12:27;;;;;;;8.82;3.85;;;16.40;99.90;;;;;;5022716;28;20052;-72
2022/10/21 12:14:59;;;;;;;7.65;3.42;;;16.40;99.90;;;;;;5029779;28;20040;-72
2022/10/21 12:17:25;;;;;;;7.50;3.83;;;16.50;99.90;;;;;;5029971;28;20049;-72
2022/10/21 12:19:58;;;;;;;5.43;2.95;;;16.50;99.90;;;;;;5030016;28;20621;-73
2022/10/21 12:22:27;;;;;;;6.07;2.70;;;16.50;99.90;;;;;;5029421;28;20025;-72
2022/10/21 12:25:19;;;;;;;6.20;2.85;;;16.50;99.90;;;;;;5029897;28;20116;-73
2022/10/21 12:27:52;;;;;;;4.32;2.20;;;16.60;99.90;;;;;;5030620;28;20031;-72
2022/10/21 12:30:29;;;;;;;7.03;2.80;;;16.60;99.90;;;;;;5030414;28;20082;-72
2022/10/21 12:33:15;;;;;;;4.57;2.65;;;16.70;99.90;;;;;;5030677;28;20033;-72
2022/10/21 12:35:49;;;;;;;6.25;2.53;;;16.60;99.90;;;;;;5030649;28;20029;-72
2022/10/21 12:38:21;;;;;;;6.90;3.50;;;16.60;99.90;;;;;;5031300;28;20037;-72
2022/10/21 12:40:49;;;;;;;5.03;2.80;;;16.60;99.90;;;;;;5030582;28;20057;-72
2022/10/21 12:43:37;;;;;;;6.28;2.60;;;16.70;99.90;;;;;;5031162;28;20041;-74
2022/10/21 12:46:07;;;;;;;3.88;2.50;;;16.70;99.90;;;;;;5039267;28;20041;-72
2022/10/21 12:48:44;;;;;;;6.60;2.47;;;16.80;99.90;;;;;;5023497;28;20033;-71
2022/10/21 12:51:26;;;;;;;5.95;2.33;;;16.80;99.90;;;;;;5016660;28;20036;-76
2022/10/21 12:53:56;;;;;;;5.45;2.50;;;16.90;99.90;;;;;;5031182;28;20048;-76
2022/10/21 12:56:45;;;;;;;5.57;3.22;;;17.00;99.90;;;;;;5030428;28;20033;-77
2022/10/21 12:59:31;;;;;;;6.47;3.22;;;17.00;99.90;;;;;;5024866;28;20060;-78
2022/10/21 13:02:08;;;;;;;4.80;2.75;;;17.10;99.90;;;;;;5033136;28;20445;-78